Time;durP1;ratioP1;P1;durP2;ratioP2;P2;SDS_P1;SDS_P2;PMS_P1;PMS_P2;Temp;Humidity;BMP_temperature;BMP_pressure;BME280_temperature;BME280_humidity;BME280_pressure;Samples;Min_cycle;Max_cycle;Signal;HPM_P1;HPM_P2
2021/08/12 00:00:19;;;;;;;16.70;5.83;;;13.60;99.90;;;;;;4443478;28;657631;-69
2021/08/12 00:03:06;;;;;;;16.87;6.27;;;13.60;99.90;;;;;;4403983;28;657801;-69
2021/08/12 00:05:54;;;;;;;17.53;6.10;;;13.50;99.90;;;;;;4398208;28;657793;-69
2021/08/12 00:08:41;;;;;;;21.03;6.33;;;13.60;99.90;;;;;;4437463;28;658116;-70
2021/08/12 00:11:29;;;;;;;21.57;6.30;;;13.50;99.90;;;;;;4398259;28;658394;-69
2021/08/12 00:14:17;;;;;;;14.83;6.10;;;13.50;99.90;;;;;;4424268;28;657799;-69
2021/08/12 00:17:06;;;;;;;19.77;7.13;;;13.50;99.90;;;;;;4417497;28;658442;-69
2021/08/12 00:19:54;;;;;;;20.43;6.30;;;13.50;99.90;;;;;;4395381;28;657853;-70
2021/08/12 00:22:41;;;;;;;20.83;6.37;;;13.40;99.90;;;;;;4420376;28;658638;-70
2021/08/12 00:25:29;;;;;;;23.33;7.00;;;13.40;99.90;;;;;;4395426;28;657990;-69
2021/08/12 00:28:16;;;;;;;25.73;6.87;;;13.30;99.90;;;;;;4422515;28;657862;-70
2021/08/12 00:31:04;;;;;;;21.00;6.13;;;13.30;99.90;;;;;;4395609;28;657574;-70
2021/08/12 00:33:53;;;;;;;13.77;6.20;;;13.30;99.90;;;;;;4418926;28;657819;-69
2021/08/12 00:36:41;;;;;;;20.70;6.50;;;13.30;99.90;;;;;;4396859;28;658106;-70
2021/08/12 00:39:28;;;;;;;17.20;6.37;;;13.30;99.90;;;;;;4392745;28;657598;-70
2021/08/12 00:42:16;;;;;;;21.73;6.55;;;13.30;99.90;;;;;;4421729;28;658702;-69
2021/08/12 00:45:04;;;;;;;16.97;6.60;;;13.30;99.90;;;;;;4419016;28;657887;-69
2021/08/12 00:47:51;;;;;;;23.50;6.20;;;13.30;99.90;;;;;;4428700;28;657715;-69
2021/08/12 00:50:41;;;;;;;17.90;6.03;;;13.30;99.90;;;;;;4398512;28;657431;-69
2021/08/12 00:53:29;;;;;;;15.00;5.50;;;13.30;99.90;;;;;;4396093;28;657392;-69
2021/08/12 00:56:17;;;;;;;14.50;5.33;;;13.30;99.90;;;;;;4412783;28;657981;-69
2021/08/12 00:59:04;;;;;;;14.07;5.20;;;13.30;99.90;;;;;;4397060;28;658189;-69
2021/08/12 01:01:52;;;;;;;14.40;5.07;;;13.30;99.90;;;;;;4409219;28;657265;-70
2021/08/12 01:04:39;;;;;;;17.00;5.33;;;13.30;99.90;;;;;;4392358;28;658026;-70
2021/08/12 01:07:33;;;;;;;10.40;4.80;;;13.30;99.90;;;;;;4419426;28;658061;-70
2021/08/12 01:10:23;;;;;;;10.80;5.00;;;13.30;99.90;;;;;;4379032;28;658328;-69
2021/08/12 01:13:13;;;;;;;9.63;4.63;;;13.30;99.90;;;;;;4405323;28;659363;-69
2021/08/12 01:16:01;;;;;;;9.77;4.30;;;13.30;99.90;;;;;;4406254;28;656928;-70
2021/08/12 01:18:53;;;;;;;8.17;4.47;;;13.30;99.90;;;;;;4402283;28;656300;-70
2021/08/12 01:21:50;;;;;;;10.65;4.43;;;13.30;99.90;;;;;;4394434;28;657417;-69
2021/08/12 01:24:40;;;;;;;9.57;4.33;;;13.30;99.90;;;;;;4392019;28;657347;-70
2021/08/12 01:27:31;;;;;;;12.40;4.50;;;13.20;99.90;;;;;;4417010;28;656816;-70
2021/08/12 01:30:22;;;;;;;9.13;4.43;;;13.20;99.90;;;;;;4399508;28;657560;-70
2021/08/12 01:33:13;;;;;;;8.00;4.03;;;13.20;99.90;;;;;;4410952;28;657019;-70
2021/08/12 01:36:05;;;;;;;9.57;4.10;;;13.20;99.90;;;;;;4395017;28;657038;-69
2021/08/12 01:38:54;;;;;;;8.77;4.23;;;13.20;99.90;;;;;;4407417;28;656611;-69
2021/08/12 01:41:43;;;;;;;7.10;4.40;;;13.10;99.90;;;;;;4444609;28;656449;-69
2021/08/12 01:44:31;;;;;;;7.40;4.03;;;13.10;99.90;;;;;;4392903;28;657002;-70
2021/08/12 01:47:20;;;;;;;7.15;4.20;;;13.10;99.90;;;;;;4394831;28;656945;-70
2021/08/12 01:50:13;;;;;;;8.93;4.20;;;13.00;99.90;;;;;;4427042;28;656994;-69
2021/08/12 01:53:05;;;;;;;7.40;4.07;;;13.00;99.90;;;;;;4402447;28;656933;-70
2021/08/12 01:55:53;;;;;;;11.70;4.33;;;13.00;99.90;;;;;;4400480;28;656609;-69
2021/08/12 01:58:40;;;;;;;10.27;4.33;;;13.00;99.90;;;;;;4397869;28;658684;-70
2021/08/12 02:01:29;;;;;;;14.40;4.80;;;13.00;99.90;;;;;;4405760;28;657637;-70
2021/08/12 02:04:16;;;;;;;13.10;4.57;;;12.90;99.90;;;;;;4427442;28;658818;-69
2021/08/12 02:07:05;;;;;;;8.23;4.00;;;12.90;99.90;;;;;;4430390;28;657250;-70
2021/08/12 02:09:55;;;;;;;7.77;4.27;;;12.90;99.90;;;;;;4413002;28;656576;-69
2021/08/12 02:12:43;;;;;;;9.83;4.20;;;12.70;99.90;;;;;;4429346;28;656712;-70
2021/08/12 02:15:31;;;;;;;6.60;3.73;;;12.60;99.90;;;;;;4425880;28;657187;-69
2021/08/12 02:18:18;;;;;;;7.03;3.80;;;12.50;99.90;;;;;;4406296;28;656633;-69
2021/08/12 02:21:08;;;;;;;6.87;3.80;;;12.60;99.90;;;;;;4420913;28;657207;-69
2021/08/12 02:24:00;;;;;;;9.43;4.70;;;12.60;99.90;;;;;;4399340;28;657172;-69
2021/08/12 02:26:52;;;;;;;8.33;4.37;;;12.60;99.90;;;;;;4396477;28;656167;-69
2021/08/12 02:29:39;;;;;;;9.07;3.80;;;12.50;99.90;;;;;;4405768;28;656500;-69
2021/08/12 02:32:29;;;;;;;8.93;4.10;;;12.40;99.90;;;;;;4422848;28;656123;-69
2021/08/12 02:35:17;;;;;;;9.53;4.37;;;12.30;99.90;;;;;;4401849;28;656226;-69
2021/08/12 02:38:04;;;;;;;7.47;4.10;;;12.30;99.90;;;;;;4402804;28;657104;-69
2021/08/12 02:40:52;;;;;;;7.47;3.80;;;12.20;99.90;;;;;;4425966;28;656596;-69
2021/08/12 02:43:42;;;;;;;6.93;4.23;;;12.10;99.90;;;;;;4404352;28;657298;-69
2021/08/12 02:46:29;;;;;;;8.87;3.80;;;12.00;99.90;;;;;;4405437;28;656737;-69
2021/08/12 02:49:17;;;;;;;8.57;4.03;;;12.00;99.90;;;;;;4425336;28;656882;-70
2021/08/12 02:52:05;;;;;;;8.47;4.10;;;11.90;99.90;;;;;;4404816;28;656783;-69
2021/08/12 02:54:52;;;;;;;7.40;4.07;;;11.90;99.90;;;;;;4419654;28;657188;-69
2021/08/12 02:57:40;;;;;;;9.93;3.93;;;11.90;99.90;;;;;;4403848;28;657081;-69
2021/08/12 03:00:29;;;;;;;7.60;4.13;;;11.80;99.90;;;;;;4419740;28;656193;-69
2021/08/12 03:03:17;;;;;;;6.93;4.00;;;11.70;99.90;;;;;;4422466;28;657723;-69
2021/08/12 03:06:05;;;;;;;11.03;4.00;;;11.70;99.90;;;;;;4404477;28;657021;-69
2021/08/12 03:08:55;;;;;;;12.10;4.27;;;11.60;99.90;;;;;;4437562;28;658330;-70
2021/08/12 03:11:44;;;;;;;10.47;3.67;;;11.60;99.90;;;;;;4427803;28;657823;-70
2021/08/12 03:14:35;;;;;;;6.27;4.17;;;11.70;99.90;;;;;;4439179;28;657965;-69
2021/08/12 03:17:26;;;;;;;7.30;3.77;;;11.70;99.90;;;;;;4389862;28;656838;-69
2021/08/12 03:20:48;;;;;;;6.00;4.00;;;11.70;99.90;;;;;;4409812;28;656984;-69
2021/08/12 03:23:35;;;;;;;6.13;4.03;;;11.70;99.90;;;;;;4396914;28;657498;-68
2021/08/12 03:26:23;;;;;;;7.87;3.97;;;11.70;99.90;;;;;;4424423;28;656366;-69
2021/08/12 03:29:10;;;;;;;7.10;4.07;;;11.60;99.90;;;;;;4449194;28;657325;-69
2021/08/12 03:31:58;;;;;;;6.53;3.60;;;11.60;99.90;;;;;;4412331;28;656870;-69
2021/08/12 03:34:47;;;;;;;6.67;4.00;;;11.60;99.90;;;;;;4429038;28;657001;-70
2021/08/12 03:37:35;;;;;;;7.07;4.30;;;11.50;99.90;;;;;;4398201;28;657978;-68
2021/08/12 03:40:22;;;;;;;7.17;3.73;;;11.60;99.90;;;;;;4424773;28;656695;-69
2021/08/12 03:43:10;;;;;;;11.27;4.10;;;11.60;99.90;;;;;;4409884;28;657506;-69
2021/08/12 03:45:58;;;;;;;12.60;4.00;;;11.60;99.90;;;;;;4426076;28;658111;-69
2021/08/12 03:48:46;;;;;;;7.30;3.50;;;11.50;99.90;;;;;;4431009;28;659094;-69
2021/08/12 03:51:35;;;;;;;8.20;3.73;;;11.60;99.90;;;;;;4420204;28;656580;-69
2021/08/12 03:54:22;;;;;;;8.77;4.10;;;11.60;99.90;;;;;;4434137;28;656936;-69
2021/08/12 03:57:10;;;;;;;11.20;4.17;;;11.60;99.90;;;;;;4417155;28;656918;-68
2021/08/12 03:59:58;;;;;;;13.93;4.50;;;11.60;99.90;;;;;;4414939;28;657548;-69
2021/08/12 04:02:46;;;;;;;7.50;4.30;;;11.70;99.90;;;;;;4416334;28;657625;-69
2021/08/12 04:05:33;;;;;;;9.67;4.80;;;11.70;99.90;;;;;;4397689;28;657025;-69
2021/08/12 04:08:22;;;;;;;10.83;5.00;;;11.70;99.90;;;;;;4416560;28;656803;-68
2021/08/12 04:11:10;;;;;;;10.00;4.50;;;11.80;99.90;;;;;;4401675;28;658356;-69
2021/08/12 04:13:58;;;;;;;12.77;4.57;;;11.80;99.90;;;;;;4436871;28;657886;-69
2021/08/12 04:16:45;;;;;;;10.63;4.20;;;11.90;99.90;;;;;;4423956;28;658906;-69
2021/08/12 04:19:33;;;;;;;11.32;4.38;;;11.90;99.90;;;;;;4399574;28;657584;-69
2021/08/12 04:22:21;;;;;;;8.13;4.20;;;12.00;99.90;;;;;;4424578;28;658669;-69
2021/08/12 04:25:11;;;;;;;7.20;4.03;;;12.00;99.90;;;;;;4405899;28;656978;-69
2021/08/12 04:27:59;;;;;;;7.50;4.20;;;12.00;99.90;;;;;;4401938;28;656543;-69
2021/08/12 04:30:48;;;;;;;8.00;4.43;;;12.20;99.90;;;;;;4424243;28;656588;-69
2021/08/12 04:33:36;;;;;;;12.50;4.30;;;12.30;99.90;;;;;;4396460;28;657310;-69
2021/08/12 04:36:23;;;;;;;12.63;4.80;;;12.40;99.90;;;;;;4408856;28;657335;-69
2021/08/12 04:39:11;;;;;;;9.87;4.63;;;12.50;99.90;;;;;;4430917;28;660173;-69
2021/08/12 04:42:00;;;;;;;10.97;4.90;;;12.60;99.90;;;;;;4404937;28;656493;-69
2021/08/12 04:44:47;;;;;;;10.47;4.80;;;12.70;99.90;;;;;;4436513;28;658019;-69
2021/08/12 04:47:35;;;;;;;11.23;5.37;;;12.80;99.90;;;;;;4417032;28;658681;-69
2021/08/12 04:50:23;;;;;;;9.80;5.23;;;12.90;99.90;;;;;;4419071;28;657613;-69
2021/08/12 04:53:11;;;;;;;18.77;5.73;;;13.10;99.90;;;;;;4422045;28;657481;-69
2021/08/12 04:55:58;;;;;;;15.70;5.23;;;13.20;99.90;;;;;;4410436;28;657633;-69
2021/08/12 04:58:47;;;;;;;9.70;5.97;;;13.40;99.90;;;;;;4415224;28;657971;-69
2021/08/12 05:01:35;;;;;;;12.07;5.23;;;13.50;99.90;;;;;;4394502;28;657033;-69
2021/08/12 05:04:23;;;;;;;12.27;5.40;;;13.60;99.90;;;;;;4402161;28;657897;-69
2021/08/12 05:07:10;;;;;;;14.47;5.53;;;13.70;99.90;;;;;;4427126;28;658457;-69
2021/08/12 05:09:59;;;;;;;11.13;5.67;;;13.80;99.90;;;;;;4408382;28;658008;-70
2021/08/12 05:12:46;;;;;;;12.20;5.83;;;14.00;99.90;;;;;;4426009;28;657851;-69
2021/08/12 05:15:35;;;;;;;15.27;5.85;;;14.20;99.90;;;;;;4394603;28;657786;-69
2021/08/12 05:18:23;;;;;;;9.18;5.90;;;14.30;99.90;;;;;;4402838;28;657820;-69
2021/08/12 05:21:11;;;;;;;14.43;5.93;;;14.50;99.90;;;;;;4439786;28;657041;-69
2021/08/12 05:23:58;;;;;;;14.47;5.33;;;14.60;99.90;;;;;;4423364;28;657562;-69
2021/08/12 05:26:46;;;;;;;18.57;5.60;;;14.80;99.90;;;;;;4437655;28;658197;-70
2021/08/12 05:29:34;;;;;;;11.13;5.60;;;14.90;99.90;;;;;;4397640;28;657956;-69
2021/08/12 05:32:23;;;;;;;10.57;5.40;;;15.00;99.90;;;;;;4417274;28;657909;-69
2021/08/12 05:35:12;;;;;;;10.73;5.33;;;15.20;99.90;;;;;;4407793;28;658341;-69
2021/08/12 05:37:59;;;;;;;14.63;5.60;;;15.30;99.90;;;;;;4419362;28;657675;-69
2021/08/12 05:40:47;;;;;;;15.13;6.07;;;15.40;99.90;;;;;;4421453;28;657355;-69
2021/08/12 05:43:34;;;;;;;12.23;6.87;;;15.60;99.90;;;;;;4409931;28;657912;-69
2021/08/12 05:46:22;;;;;;;13.23;6.47;;;15.80;99.90;;;;;;4446391;28;657521;-70
2021/08/12 05:49:11;;;;;;;11.43;5.80;;;15.80;99.90;;;;;;4401924;28;658104;-69
2021/08/12 05:51:58;;;;;;;12.97;6.23;;;16.10;99.90;;;;;;4405886;28;657463;-69
2021/08/12 05:54:46;;;;;;;14.60;6.20;;;16.20;99.90;;;;;;4415065;28;658157;-69
2021/08/12 05:57:34;;;;;;;13.93;5.93;;;16.30;99.90;;;;;;4403253;28;657843;-69
2021/08/12 06:00:21;;;;;;;20.10;6.50;;;16.50;99.90;;;;;;4417267;28;658341;-69
2021/08/12 06:03:09;;;;;;;12.70;5.60;;;16.70;99.90;;;;;;4404087;28;657649;-69
2021/08/12 06:05:58;;;;;;;13.23;5.63;;;16.80;99.90;;;;;;4430104;28;657496;-69
2021/08/12 06:08:46;;;;;;;11.23;5.07;;;17.00;99.90;;;;;;4393689;28;658649;-69
2021/08/12 06:11:34;;;;;;;10.20;5.50;;;17.20;99.90;;;;;;4402562;28;657949;-69
2021/08/12 06:14:21;;;;;;;11.93;5.80;;;17.30;99.90;;;;;;4422001;28;658155;-69
2021/08/12 06:17:09;;;;;;;12.47;6.27;;;17.50;99.90;;;;;;4411058;28;657544;-69
2021/08/12 06:19:57;;;;;;;13.27;6.20;;;17.60;99.90;;;;;;4423351;28;657334;-69
2021/08/12 06:22:47;;;;;;;16.67;6.05;;;17.80;99.90;;;;;;4402947;28;658068;-70
2021/08/12 06:25:34;;;;;;;15.10;5.77;;;17.90;99.90;;;;;;4400033;28;657236;-69
2021/08/12 06:28:22;;;;;;;12.20;6.07;;;18.00;99.90;;;;;;4446145;28;657253;-69
2021/08/12 06:31:09;;;;;;;14.90;6.10;;;18.20;99.90;;;;;;4419513;28;658039;-70
2021/08/12 06:33:57;;;;;;;13.20;5.90;;;18.30;99.90;;;;;;4438722;28;657812;-70
2021/08/12 06:36:45;;;;;;;12.70;7.10;;;18.40;99.90;;;;;;4421697;28;658485;-69
2021/08/12 06:39:34;;;;;;;17.13;6.40;;;18.50;99.90;;;;;;4442137;28;657683;-69
2021/08/12 06:42:21;;;;;;;21.43;7.40;;;18.60;99.90;;;;;;4416089;28;657702;-70
2021/08/12 06:45:09;;;;;;;14.63;7.07;;;18.80;99.90;;;;;;4412413;28;657678;-70
2021/08/12 06:47:57;;;;;;;17.43;7.97;;;18.90;99.90;;;;;;4430691;28;657051;-70
2021/08/12 06:50:44;;;;;;;24.00;8.80;;;19.00;99.90;;;;;;4427340;28;658397;-70
2021/08/12 06:53:32;;;;;;;25.23;10.00;;;19.00;99.90;;;;;;4440193;28;657597;-70
2021/08/12 06:56:21;;;;;;;24.67;9.63;;;19.00;99.90;;;;;;4408731;28;659310;-69
2021/08/12 06:59:09;;;;;;;22.57;9.20;;;19.10;99.90;;;;;;4413334;28;658238;-70
2021/08/12 07:01:56;;;;;;;22.03;8.50;;;19.20;99.90;;;;;;4425001;28;657622;-69
2021/08/12 07:04:44;;;;;;;23.47;9.63;;;19.30;99.90;;;;;;4409297;28;657497;-70
2021/08/12 07:07:31;;;;;;;23.80;9.13;;;19.40;99.90;;;;;;4430870;28;658091;-69
2021/08/12 07:10:19;;;;;;;18.20;9.27;;;19.50;99.90;;;;;;4402591;28;657518;-70
2021/08/12 07:13:08;;;;;;;20.80;9.87;;;19.40;99.90;;;;;;4424921;28;657529;-70
2021/08/12 07:15:56;;;;;;;18.67;8.33;;;19.50;99.90;;;;;;4412580;28;657983;-70
2021/08/12 07:18:44;;;;;;;14.43;8.07;;;19.70;99.90;;;;;;4411554;28;657518;-70
2021/08/12 07:21:32;;;;;;;11.77;6.40;;;19.90;99.90;;;;;;4418015;28;657450;-70
2021/08/12 07:24:20;;;;;;;9.57;5.27;;;19.90;99.90;;;;;;4397500;28;657355;-70
2021/08/12 07:27:08;;;;;;;10.13;5.27;;;20.10;99.90;;;;;;4412145;28;656478;-69
2021/08/12 07:29:57;;;;;;;8.73;5.10;;;20.20;99.90;;;;;;4425701;28;658280;-70
2021/08/12 07:32:45;;;;;;;13.20;5.53;;;20.30;99.90;;;;;;4407404;28;656832;-70
2021/08/12 07:35:33;;;;;;;9.97;4.90;;;20.50;99.90;;;;;;4421327;28;657584;-69
2021/08/12 07:38:21;;;;;;;8.23;4.57;;;20.80;99.90;;;;;;4399606;28;657408;-69
2021/08/12 07:41:08;;;;;;;11.67;5.40;;;20.90;99.90;;;;;;4403287;28;656851;-67
2021/08/12 07:43:56;;;;;;;12.87;5.30;;;21.10;99.90;;;;;;4417733;28;659782;-67
2021/08/12 07:46:45;;;;;;;14.47;7.27;;;21.30;99.90;;;;;;4395679;28;658212;-66
2021/08/12 07:49:32;;;;;;;13.33;6.17;;;21.40;99.90;;;;;;4415652;28;657217;-67
2021/08/12 07:52:20;;;;;;;13.90;6.70;;;21.40;99.90;;;;;;4392677;28;657533;-66
2021/08/12 07:55:09;;;;;;;8.50;4.47;;;21.50;99.90;;;;;;4414475;28;657574;-66
2021/08/12 07:57:56;;;;;;;9.10;4.87;;;21.70;99.90;;;;;;4392051;28;656705;-67
2021/08/12 08:00:44;;;;;;;10.03;4.97;;;21.90;99.90;;;;;;4399522;28;656734;-67
2021/08/12 08:03:33;;;;;;;7.60;4.17;;;21.90;99.90;;;;;;4414714;28;657954;-67
2021/08/12 08:06:21;;;;;;;9.10;3.30;;;22.00;99.90;;;;;;4397365;28;657326;-67
2021/08/12 08:09:08;;;;;;;6.10;3.17;;;22.00;99.90;;;;;;4417567;28;656931;-67
2021/08/12 08:11:56;;;;;;;7.97;3.83;;;22.10;99.90;;;;;;4413632;28;657377;-67
2021/08/12 08:14:43;;;;;;;5.03;3.20;;;22.20;99.90;;;;;;4397864;28;656336;-68
2021/08/12 08:17:31;;;;;;;10.10;3.53;;;22.40;99.90;;;;;;4415067;28;657187;-67
2021/08/12 08:20:20;;;;;;;6.37;3.50;;;22.70;99.90;;;;;;4408098;28;657253;-67
2021/08/12 08:23:10;;;;;;;7.57;4.27;;;22.90;99.90;;;;;;4420597;28;657031;-67
2021/08/12 08:25:57;;;;;;;5.67;3.40;;;23.10;99.90;;;;;;4428688;28;657084;-67
2021/08/12 08:28:45;;;;;;;7.93;3.47;;;23.40;99.90;;;;;;4406387;28;657093;-67
2021/08/12 08:31:33;;;;;;;8.83;3.50;;;22.90;99.90;;;;;;4415267;28;656446;-68
2021/08/12 08:34:20;;;;;;;5.97;3.53;;;22.60;99.90;;;;;;4421896;28;657745;-67
2021/08/12 08:37:09;;;;;;;8.15;3.88;;;22.80;99.90;;;;;;4403461;28;656559;-68
2021/08/12 08:39:57;;;;;;;5.37;3.33;;;22.70;99.90;;;;;;4430888;28;656745;-67
2021/08/12 08:42:45;;;;;;;5.47;3.07;;;22.80;99.90;;;;;;4407996;28;657942;-68
2021/08/12 08:45:33;;;;;;;5.37;2.77;;;23.10;99.90;;;;;;4412095;28;656732;-68
2021/08/12 08:48:21;;;;;;;4.47;2.93;;;22.90;99.90;;;;;;4422053;28;657670;-67
2021/08/12 08:51:08;;;;;;;5.27;2.90;;;23.10;99.90;;;;;;4403459;28;656664;-68
2021/08/12 08:53:57;;;;;;;4.43;2.70;;;23.20;99.90;;;;;;4422497;28;657245;-67
2021/08/12 08:56:45;;;;;;;5.50;3.10;;;23.30;99.90;;;;;;4403567;28;657013;-68
2021/08/12 08:59:34;;;;;;;6.90;3.10;;;23.40;99.90;;;;;;4406039;28;656689;-68
2021/08/12 09:02:21;;;;;;;6.37;3.40;;;23.80;99.90;;;;;;4412683;28;657975;-68
2021/08/12 09:05:09;;;;;;;6.20;3.20;;;24.00;99.90;;;;;;4410206;28;656150;-68
2021/08/12 09:07:57;;;;;;;6.87;3.10;;;23.90;99.90;;;;;;4421433;28;656389;-68
2021/08/12 09:10:46;;;;;;;5.97;3.20;;;23.50;99.90;;;;;;4402228;28;657356;-68
2021/08/12 09:13:33;;;;;;;4.07;2.70;;;23.80;99.90;;;;;;4403237;28;656328;-68
2021/08/12 09:16:30;;;;;;;4.03;2.73;;;24.20;99.90;;;;;;4421858;28;657111;-67
2021/08/12 09:19:22;;;;;;;5.00;3.10;;;24.10;99.90;;;;;;4380276;28;656442;-68
2021/08/12 09:22:10;;;;;;;7.70;2.87;;;24.00;99.90;;;;;;4411691;28;656636;-68
2021/08/12 09:24:58;;;;;;;3.23;2.47;;;24.30;99.90;;;;;;4419559;28;657236;-68
2021/08/12 09:27:47;;;;;;;5.97;2.78;;;24.60;99.90;;;;;;4439899;28;656861;-67
2021/08/12 09:30:35;;;;;;;8.23;3.40;;;25.00;99.90;;;;;;4424839;28;657222;-68
2021/08/12 09:33:22;;;;;;;5.18;3.03;;;25.50;99.90;;;;;;4448345;28;656311;-67
2021/08/12 09:36:21;;;;;;;6.53;3.15;;;25.60;99.90;;;;;;4424978;28;657161;-67
2021/08/12 09:39:15;;;;;;;4.25;2.80;;;24.90;99.90;;;;;;4429046;28;656601;-67
2021/08/12 09:42:05;;;;;;;6.10;2.85;;;24.10;99.90;;;;;;4403570;28;656386;-68
2021/08/12 09:44:54;;;;;;;4.33;2.93;;;23.50;99.90;;;;;;4431209;28;656616;-67
2021/08/12 09:47:41;;;;;;;5.97;3.10;;;23.10;99.90;;;;;;4407108;28;658150;-67
2021/08/12 09:50:31;;;;;;;3.47;2.93;;;23.30;99.90;;;;;;4412484;28;656721;-68
2021/08/12 09:53:22;;;;;;;4.80;3.23;;;23.70;99.90;;;;;;4412806;28;656483;-68
2021/08/12 09:56:10;;;;;;;6.50;3.30;;;23.80;99.90;;;;;;4412594;28;656518;-67
2021/08/12 09:59:06;;;;;;;5.43;3.40;;;24.20;99.90;;;;;;4422551;28;656510;-68
2021/08/12 10:02:13;;;;;;;6.87;3.47;;;24.30;99.90;;;;;;4385662;28;657991;-68
2021/08/12 10:05:05;;;;;;;4.93;3.37;;;24.40;99.90;;;;;;4409078;28;656957;-68
2021/08/12 10:07:55;;;;;;;8.07;3.40;;;24.30;99.90;;;;;;4398337;28;656713;-67
2021/08/12 10:10:43;;;;;;;6.30;3.60;;;23.90;99.90;;;;;;4433640;28;656556;-68
2021/08/12 10:13:31;;;;;;;5.37;3.70;;;24.20;99.90;;;;;;4437144;28;657006;-67
2021/08/12 10:16:19;;;;;;;5.83;3.43;;;24.10;99.10;;;;;;4415635;28;656777;-67
2021/08/12 10:19:09;;;;;;;5.13;3.60;;;23.90;99.90;;;;;;4434131;28;656890;-67
2021/08/12 10:21:57;;;;;;;5.63;3.57;;;23.80;99.90;;;;;;4410892;28;656681;-67
2021/08/12 10:24:45;;;;;;;7.73;3.60;;;24.20;99.90;;;;;;4415478;28;656637;-67
2021/08/12 10:27:32;;;;;;;7.80;3.97;;;24.30;99.90;;;;;;4434406;28;656377;-67
2021/08/12 10:30:20;;;;;;;5.87;3.50;;;24.80;99.90;;;;;;4411176;28;657775;-67
2021/08/12 10:33:09;;;;;;;5.35;3.72;;;25.10;99.90;;;;;;4424766;28;656321;-67
2021/08/12 10:35:58;;;;;;;7.85;3.53;;;25.30;99.30;;;;;;4433184;28;658052;-67
2021/08/12 10:38:52;;;;;;;5.18;3.70;;;25.30;99.90;;;;;;4409984;28;657143;-68
2021/08/12 10:41:41;;;;;;;5.57;3.40;;;25.40;99.90;;;;;;4413838;28;656600;-67
2021/08/12 10:44:29;;;;;;;6.78;3.80;;;24.90;99.90;;;;;;4413734;28;656382;-67
2021/08/12 10:47:39;;;;;;;5.88;3.40;;;24.20;99.90;;;;;;4432554;28;656358;-67
2021/08/12 10:50:35;;;;;;;8.02;3.47;;;23.60;99.90;;;;;;4409664;28;656745;-67
2021/08/12 10:53:24;;;;;;;5.20;3.40;;;23.20;99.90;;;;;;4397662;28;656659;-67
2021/08/12 10:56:13;;;;;;;5.23;3.13;;;23.40;99.90;;;;;;4432993;28;656416;-67
2021/08/12 10:59:07;;;;;;;7.57;3.37;;;24.00;99.90;;;;;;4410309;28;657678;-67
2021/08/12 11:01:55;;;;;;;4.57;3.37;;;24.40;99.00;;;;;;4386623;28;658047;-67
2021/08/12 11:04:51;;;;;;;4.68;3.30;;;25.20;98.80;;;;;;4432390;28;656872;-67
2021/08/12 11:07:50;;;;;;;5.55;3.80;;;25.70;97.00;;;;;;4386843;28;656890;-67
2021/08/12 11:10:49;;;;;;;7.90;3.10;;;26.20;94.20;;;;;;4396559;28;657184;-68
2021/08/12 11:13:37;;;;;;;8.10;3.60;;;26.40;94.60;;;;;;4407209;28;656678;-67
2021/08/12 11:16:25;;;;;;;5.85;3.13;;;26.40;94.90;;;;;;4409555;28;656605;-68
2021/08/12 11:19:33;;;;;;;5.05;2.90;;;26.70;95.70;;;;;;4432452;28;656443;-68
2021/08/12 11:22:32;;;;;;;7.78;2.95;;;26.80;93.50;;;;;;4409119;28;656612;-68
2021/08/12 11:25:20;;;;;;;5.97;3.25;;;26.50;89.30;;;;;;4385296;28;656862;-67
2021/08/12 11:28:16;;;;;;;6.82;3.38;;;26.60;93.60;;;;;;4415940;28;656776;-68
2021/08/12 11:31:03;;;;;;;8.23;3.25;;;27.20;94.20;;;;;;4372543;28;656791;-68
2021/08/12 11:33:53;;;;;;;5.07;3.22;;;27.20;93.30;;;;;;4414063;28;656435;-68
2021/08/12 11:36:43;;;;;;;7.32;2.88;;;27.30;93.30;;;;;;4392748;28;657201;-68
2021/08/12 11:39:30;;;;;;;4.28;3.22;;;27.70;94.50;;;;;;4394849;28;657772;-68
2021/08/12 11:42:27;;;;;;;5.43;3.05;;;27.80;93.20;;;;;;4399751;28;656548;-68
2021/08/12 11:45:17;;;;;;;6.55;2.80;;;27.90;88.50;;;;;;4412545;28;656757;-68
2021/08/12 11:48:05;;;;;;;3.65;2.75;;;28.20;90.90;;;;;;4393071;28;657748;-68
2021/08/12 11:50:53;;;;;;;4.50;2.70;;;28.50;91.60;;;;;;4402955;28;656800;-68
2021/08/12 11:53:45;;;;;;;4.80;2.88;;;27.80;84.20;;;;;;4419019;28;657842;-68
2021/08/12 11:56:35;;;;;;;4.00;2.70;;;27.10;88.50;;;;;;4374614;28;657055;-67
2021/08/12 11:59:26;;;;;;;4.07;2.60;;;26.90;90.60;;;;;;4400176;28;656475;-68
2021/08/12 12:02:15;;;;;;;4.95;3.15;;;27.20;91.40;;;;;;4396912;28;656428;-68
2021/08/12 12:05:03;;;;;;;4.93;2.95;;;27.50;88.80;;;;;;4396671;28;656519;-67
2021/08/12 12:07:52;;;;;;;5.85;2.80;;;27.90;85.20;;;;;;4416186;28;657533;-67
2021/08/12 12:10:40;;;;;;;4.57;2.65;;;28.00;84.30;;;;;;4395639;28;656435;-68
2021/08/12 12:13:31;;;;;;;3.97;3.03;;;27.80;80.30;;;;;;4414281;28;656598;-67
2021/08/12 12:16:18;;;;;;;6.30;3.20;;;27.80;79.40;;;;;;4396391;28;656644;-68
2021/08/12 12:19:09;;;;;;;4.25;3.10;;;27.30;77.70;;;;;;4417014;28;657118;-68
2021/08/12 12:21:57;;;;;;;5.43;3.35;;;27.20;83.10;;;;;;4390273;28;656493;-67
2021/08/12 12:24:46;;;;;;;5.45;3.42;;;27.40;84.40;;;;;;4390080;28;658014;-67
2021/08/12 12:27:34;;;;;;;6.22;3.50;;;27.80;81.00;;;;;;4396282;28;656401;-67
2021/08/12 12:30:23;;;;;;;3.35;2.75;;;27.70;76.50;;;;;;4413675;28;656218;-67
2021/08/12 12:33:13;;;;;;;5.07;3.20;;;27.50;70.70;;;;;;4407161;28;656771;-67
2021/08/12 12:36:04;;;;;;;9.38;2.75;;;27.40;76.20;;;;;;4391721;28;657260;-67
2021/08/12 12:38:51;;;;;;;3.70;2.40;;;27.80;71.30;;;;;;4396555;28;656883;-67
2021/08/12 12:41:39;;;;;;;4.35;2.63;;;28.10;72.50;;;;;;4396608;28;656652;-67
2021/08/12 12:44:27;;;;;;;9.57;3.20;;;28.20;68.10;;;;;;4414505;28;656215;-67
2021/08/12 12:47:25;;;;;;;4.85;2.80;;;28.60;72.90;;;;;;4395578;28;657836;-67
2021/08/12 12:50:14;;;;;;;5.72;2.80;;;27.90;67.00;;;;;;4408062;28;657309;-67
2021/08/12 12:53:14;;;;;;;6.07;2.97;;;27.30;68.60;;;;;;4408298;28;656682;-68
2021/08/12 12:56:08;;;;;;;9.07;2.80;;;27.10;71.40;;;;;;4408590;28;656764;-67
2021/08/12 12:58:59;;;;;;;6.10;3.17;;;27.10;76.30;;;;;;4385344;28;656575;-67
2021/08/12 13:01:55;;;;;;;3.97;3.05;;;26.40;72.50;;;;;;4408151;28;657316;-67
2021/08/12 13:04:58;;;;;;;5.38;2.80;;;26.70;75.70;;;;;;4394865;28;656629;-67
2021/08/12 13:07:52;;;;;;;3.80;2.67;;;27.30;72.30;;;;;;4407642;28;657365;-67
2021/08/12 13:11:08;;;;;;;4.20;2.83;;;27.40;70.80;;;;;;4396529;28;656925;-67
2021/08/12 13:14:09;;;;;;;8.40;2.70;;;28.20;75.30;;;;;;4367611;28;657380;-67
2021/08/12 13:17:08;;;;;;;3.75;2.50;;;28.80;75.90;;;;;;4392139;28;656965;-68
2021/08/12 13:20:14;;;;;;;3.83;2.40;;;30.00;74.30;;;;;;4369009;28;656898;-67
2021/08/12 13:23:04;;;;;;;4.03;1.98;;;29.80;66.90;;;;;;4391665;28;656509;-67
2021/08/12 13:26:05;;;;;;;3.38;2.13;;;29.30;63.00;;;;;;4396514;28;656426;-67
2021/08/12 13:29:17;;;;;;;3.00;2.10;;;28.50;67.10;;;;;;4426398;28;656782;-67
2021/08/12 13:32:13;;;;;;;3.20;2.50;;;28.10;75.20;;;;;;4411718;28;656941;-67
2021/08/12 13:35:06;;;;;;;3.30;2.42;;;27.90;75.60;;;;;;4390274;28;656880;-67
2021/08/12 13:37:59;;;;;;;5.60;2.10;;;28.10;75.60;;;;;;4372366;28;657436;-67
2021/08/12 13:40:47;;;;;;;2.97;2.10;;;28.00;69.20;;;;;;4390978;28;656722;-67
2021/08/12 13:43:36;;;;;;;4.13;2.42;;;27.80;76.80;;;;;;4411705;28;656505;-67
2021/08/12 13:46:23;;;;;;;4.90;2.58;;;27.70;83.90;;;;;;4414780;28;656835;-67
2021/08/12 13:49:11;;;;;;;5.07;2.45;;;27.50;79.70;;;;;;4416523;28;657694;-67
2021/08/12 13:51:59;;;;;;;5.07;2.40;;;27.20;78.60;;;;;;4396500;28;656957;-67
2021/08/12 13:54:47;;;;;;;3.65;2.30;;;27.10;82.30;;;;;;4433736;28;656459;-67
2021/08/12 13:57:34;;;;;;;3.85;2.40;;;27.00;84.90;;;;;;4411614;28;656718;-67
2021/08/12 14:00:24;;;;;;;4.60;2.25;;;27.10;85.50;;;;;;4437780;28;656207;-67
2021/08/12 14:03:12;;;;;;;11.55;2.60;;;27.10;75.00;;;;;;4410206;28;656541;-67
2021/08/12 14:05:59;;;;;;;7.15;2.80;;;27.40;78.10;;;;;;4413391;28;658243;-68
2021/08/12 14:08:47;;;;;;;6.75;2.60;;;27.50;74.20;;;;;;4433277;28;656596;-67
2021/08/12 14:11:35;;;;;;;3.80;2.88;;;27.40;68.80;;;;;;4410247;28;657781;-67
2021/08/12 14:14:23;;;;;;;7.47;3.13;;;27.00;67.20;;;;;;4425974;28;656598;-67
2021/08/12 14:17:12;;;;;;;4.82;2.85;;;26.40;75.50;;;;;;4432896;28;658293;-67
2021/08/12 14:20:00;;;;;;;6.35;3.20;;;26.00;78.00;;;;;;4410550;28;657470;-67
2021/08/12 14:22:47;;;;;;;3.30;2.88;;;25.80;78.90;;;;;;4432689;28;656499;-67
2021/08/12 14:25:35;;;;;;;5.18;2.95;;;26.30;79.10;;;;;;4396699;28;657753;-67